Terminal Aerodrome Forecast
Issued by NWS Atlanta, GA

Home | Current Version | Previous Version | Text Only | Print | Product List | Glossary On
Versions: 1 2 3 4 5 6 7 8 9 10 11 12 13 14 15 16
686
FTUS42 KFFC 291120
TAFMCN
TAF
KMCN 291120Z 2912/3012 00000KT 4SM BR SCT120
      TEMPO 2912/2913 2SM BR
     FM291400 33004KT P6SM FEW030
     FM291600 VRB03KT P6SM VCSH BKN050
     FM300000 09002KT P6SM SCT250=

USA.gov is the U.S. government's official web portal to all federal, state and local government web resources and services.